Have a Safe July 4th! 

Flight Track Log - Related Links

Times and Time Zones

All times are in EDT time to prevent confusion due to time zone crossing. See the DAL1435 flight status page for this flight to view local times or setup timezone preferences in your user account.

Time Position Orientation Groundspeed Altitude Reporting Facility
EDT Latitude Longitude Course Direction KTS MPH feet Rate Location/Type
Thu 07:53:01 PM 40.7667 -73.8333 90° East 174 200 1,400  Level New York TRACON
Thu 07:54:01 PM 40.7667 -73.7833 333° Northwest 216 249 3,300 1,850 Climbing New York TRACON
Thu 07:55:01 PM 40.8167 -73.8167 308° West 239 275 5,100 2,150 Climbing New York TRACON
Thu 07:56:01 PM 40.8667 -73.9000 258° West 267 307 7,600 2,700 Climbing New York TRACON
Thu 07:57:01 PM 40.8500 -74.0000 237° Southwest 278 320 10,500 2,050 Climbing New York TRACON
Thu 07:58:01 PM 40.8000 -74.1000 241° Southwest 322 371 11,700 1,668 Climbing New York TRACON
Thu 08:00:08 PM 40.6947 -74.3539 241° Southwest 410 472 15,700 1,829 Climbing New York Center
Thu 08:01:08 PM 40.6364 -74.4903 239° Southwest 410 472 17,400 1,835 Climbing New York Center
Thu 08:02:09 PM 40.5758 -74.6236 232° Southwest 425 489 19,400 1,835 Climbing New York Center
Thu 08:03:09 PM 40.5031 -74.7450 231° Southwest 431 496 21,100 1,424 Climbing New York Center
Thu 08:04:07 PM 40.4214 -74.8767 233° Southwest 446 513 22,200 1,361 Climbing New York Center
Thu 08:05:08 PM 40.3525 -74.9950 233° Southwest 461 531 23,800 1,636 Climbing New York Center
Thu 08:06:08 PM 40.2703 -75.1397 233° Southwest 461 531 25,500 1,785 Climbing New York Center
Thu 08:07:09 PM 40.1989 -75.2656 234° Southwest 452 520 27,400 1,550 Climbing New York Center
Thu 08:08:08 PM 40.1339 -75.3808 226° Southwest 441 507 28,600 1,119 Climbing New York Center
Thu 08:09:07 PM 40.0503 -75.4947 227° Southwest 441 507 29,600 1,050 Climbing New York Center
Thu 08:10:08 PM 39.9642 -75.6136 229° Southwest 446 513 30,700 1,050 Climbing New York Center
Thu 08:11:07 PM 39.8861 -75.7325 230° Southwest 446 513 31,700 655 Climbing New York Center
Thu 08:12:07 PM 39.8103 -75.8514 229° Southwest 446 513 32,000 148 Climbing New York Center
Thu 08:13:09 PM 39.7208 -75.9856 233° Southwest 446 513 32,000  Level New York Center
Thu 08:14:26 PM 39.6289 -76.1411 229° Southwest 428 493 32,000  Level Washington Center
Thu 08:15:27 PM 39.5514 -76.2564 226° Southwest 428 493 32,000  Level Washington Center
Thu 08:16:27 PM 39.4672 -76.3683 225° Southwest 428 493 32,000  Level Washington Center
Thu 08:17:25 PM 39.3833 -76.4750 224° Southwest 433 498 32,000  Level Washington Center
Thu 08:18:26 PM 39.2950 -76.5839 224° Southwest 433 498 32,000  Level Washington Center
Thu 08:19:28 PM 39.2106 -76.6897 224° Southwest 433 498 32,000  Level Washington Center
Thu 08:20:26 PM 39.1242 -76.7983 223° Southwest 433 498 32,000 -153 Level Washington Center
Thu 08:21:26 PM 39.0375 -76.9036 223° Southwest 433 498 31,700 -992 Descending Washington Center
Thu 08:22:27 PM 38.9508 -77.0089 225° Southwest 433 498 30,000 -857 Descending Washington Center
Thu 08:23:25 PM 38.8706 -77.1114 223° Southwest 438 504 30,000  Level Washington Center
Thu 08:24:26 PM 38.7731 -77.2292 225° Southwest 438 504 30,000  Level Washington Center
Thu 08:25:26 PM 38.6861 -77.3389 223° Southwest 438 504 30,000  Level Washington Center
Thu 08:26:26 PM 38.5947 -77.4483 224° Southwest 438 504 30,000  Level Washington Center
Thu 08:27:27 PM 38.5053 -77.5575 223° Southwest 438 504 30,000  Level Washington Center
Thu 08:28:25 PM 38.4161 -77.6639 225° Southwest 433 498 30,000  Level Washington Center
Thu 08:29:26 PM 38.3308 -77.7728 223° Southwest 433 498 30,000  Level Washington Center
Thu 08:30:27 PM 38.2389 -77.8811 223° Southwest 433 498 30,000  Level Washington Center
Thu 08:31:27 PM 38.1494 -77.9867 224° Southwest 433 498 30,000  Level Washington Center
Thu 08:32:25 PM 38.0594 -78.0972 222° Southwest 433 498 30,000  Level Washington Center
Thu 08:33:26 PM 37.9806 -78.1867 218° Southwest 433 498 30,000  Level Washington Center
Thu 08:34:27 PM 37.8803 -78.2858 217° Southwest 438 504 30,000  Level Washington Center
Thu 08:35:28 PM 37.7822 -78.3797 216° Southwest 443 510 30,000  Level Washington Center
Thu 08:36:25 PM 37.6714 -78.4806 214° Southwest 451 519 30,000  Level Washington Center
Thu 08:37:27 PM 37.5692 -78.5683 194° South 451 519 30,000  Level Washington Center
Thu 08:38:28 PM 37.4450 -78.6078 178° South 443 510 30,000  Level Washington Center
Thu 08:39:25 PM 37.3136 -78.6028 175° South 456 525 30,000  Level Washington Center
Thu 08:40:25 PM 37.1847 -78.5897 184° South 463 533 30,000  Level Washington Center
Thu 08:41:26 PM 37.0656 -78.6008 202° Southwest 468 539 30,000  Level Washington Center
Thu 08:42:26 PM 36.9492 -78.6611 208° Southwest 456 525 30,000  Level Washington Center
Thu 08:43:27 PM 36.8367 -78.7372 208° Southwest 456 525 30,000  Level Washington Center
Thu 08:44:27 PM 36.7261 -78.8106 211° Southwest 456 525 30,000  Level Washington Center
Thu 08:45:28 PM 36.6197 -78.8889 208° Southwest 456 525 30,000  Level Washington Center
Thu 08:46:25 PM 36.5092 -78.9617 206° Southwest 449 517 30,000  Level Washington Center
Thu 08:47:26 PM 36.3967 -79.0292 208° Southwest 449 517 30,000 300 Level Washington Center
Thu 08:48:25 PM 36.2861 -79.1017 208° Southwest 449 517 30,600 756 Climbing Washington Center
Thu 08:49:25 PM 36.1756 -79.1739 207° Southwest 449 517 31,500 694 Climbing Washington Center
Thu 08:50:26 PM 36.0650 -79.2433 208° Southwest 449 517 32,000 248 Climbing Washington Center
Thu 08:51:26 PM 35.9564 -79.3153 207° Southwest 449 517 32,000  Level Washington Center
Thu 08:52:27 PM 35.8350 -79.3917 207° Southwest 449 517 32,000  Level Washington Center
Thu 08:53:27 PM 35.7242 -79.4606 207° Southwest 449 517 32,000  Level Washington Center
Thu 08:54:25 PM 35.6133 -79.5292 208° Southwest 444 511 32,000 51 Level Washington Center
Thu 08:55:25 PM 35.5006 -79.6028 207° Southwest 453 521 32,100 593 Climbing Washington Center
Thu 08:57:27 PM 35.2808 -79.7392 207° Southwest 453 521 33,800 481 Climbing Washington Center
Thu 08:59:22 PM 35.0789 -79.8642 207° Southwest 421 484 34,000 69 Climbing Jacksonville Center
Thu 09:00:22 PM 34.9719 -79.9311 207° Southwest 427 491 34,000 -34 Level Jacksonville Center
Thu 09:02:21 PM 34.7500 -80.0703 206° Southwest 433 498 33,900  Descending Jacksonville Center
Thu 09:03:22 PM 34.6428 -80.1344 207° Southwest 428 493 34,000 50 Climbing Jacksonville Center
Thu 09:04:22 PM 34.5358 -80.2008 207° Southwest 428 493 34,000  Level Jacksonville Center
Thu 09:05:22 PM 34.4308 -80.2644 208° Southwest 428 493 34,000  Level Jacksonville Center
Thu 09:06:22 PM 34.3236 -80.3331 206° Southwest 428 493 34,000  Level Jacksonville Center
Thu 09:07:22 PM 34.2164 -80.3964 207° Southwest 428 493 34,000  Level Jacksonville Center
Thu 09:08:21 PM 34.1072 -80.4622 207° Southwest 428 493 34,000  Level Jacksonville Center
Thu 09:09:22 PM 34.0019 -80.5278 207° Southwest 428 493 34,000 -50 Level Jacksonville Center
Thu 09:10:22 PM 33.8947 -80.5933 207° Southwest 428 493 33,900 -50 Descending Jacksonville Center
Thu 09:11:22 PM 33.7875 -80.6586 206° Southwest 428 493 33,900 50 Level Jacksonville Center
Thu 09:12:22 PM 33.6781 -80.7236 207° Southwest 428 493 34,000 50 Climbing Jacksonville Center
Thu 09:13:22 PM 33.5706 -80.7886 206° Southwest 428 493 34,000  Level Jacksonville Center
Thu 09:14:22 PM 33.4631 -80.8511 207° Southwest 428 493 34,000  Level Jacksonville Center
Thu 09:15:21 PM 33.3556 -80.9156 207° Southwest 428 493 34,000  Level Jacksonville Center
Thu 09:16:22 PM 33.2481 -80.9800 207° Southwest 428 493 34,000  Level Jacksonville Center
Thu 09:17:22 PM 33.1406 -81.0444 207° Southwest 428 493 34,000  Level Jacksonville Center
Thu 09:18:22 PM 33.0328 -81.1086 206° Southwest 428 493 34,000 -50 Level Jacksonville Center
Thu 09:19:22 PM 32.9250 -81.1700 211° Southwest 428 493 33,900  Descending Jacksonville Center
Thu 09:20:21 PM 32.8217 -81.2439 210° Southwest 428 493 34,000 50 Climbing Jacksonville Center
Thu 09:21:21 PM 32.7203 -81.3147 211° Southwest 433 498 34,000  Level Jacksonville Center
Thu 09:22:21 PM 32.6169 -81.3881 211° Southwest 438 504 34,000  Level Jacksonville Center
Thu 09:23:22 PM 32.5236 -81.4536 206° Southwest 438 504 34,000  Level Jacksonville Center
Thu 09:24:21 PM 32.4033 -81.5244 196° South 438 504 34,000  Level Jacksonville Center
Thu 09:25:21 PM 32.2972 -81.5606 194° South 445 512 34,000  Level Jacksonville Center
Thu 09:26:22 PM 32.1661 -81.5992 195° South 442 509 34,000  Level Jacksonville Center
Thu 09:27:22 PM 32.0433 -81.6378 193° South 442 509 34,000  Level Jacksonville Center
Thu 09:28:22 PM 31.9228 -81.6711 195° South 447 514 34,000  Level Jacksonville Center
Thu 09:29:22 PM 31.8019 -81.7094 195° South 452 520 34,000  Level Jacksonville Center
Thu 09:30:21 PM 31.6936 -81.7425 195° South 452 520 34,000  Level Jacksonville Center
Thu 09:31:22 PM 31.5603 -81.7833 194° South 452 520 34,000 -1,150 Level Jacksonville Center
Thu 09:32:21 PM 31.4375 -81.8186 194° South 452 520 31,700 -2,017 Descending Jacksonville Center
Thu 09:33:21 PM 31.3125 -81.8542 195° South 458 527 30,000 -850 Descending Jacksonville Center
Thu 09:34:21 PM 31.1856 -81.8944 195° South 470 541 30,000  Level Jacksonville Center
Thu 09:35:21 PM 31.0606 -81.9322 194° South 464 534 30,000  Level Jacksonville Center
Thu 09:36:21 PM 30.9356 -81.9672 195° South 464 534 30,000  Level Jacksonville Center
Thu 09:37:21 PM 30.8106 -82.0050 194° South 469 540 30,000  Level Jacksonville Center
Thu 09:38:21 PM 30.6958 -82.0372 194° South 475 547 30,000  Level Jacksonville Center
Thu 09:39:21 PM 30.5708 -82.0747 193° South 470 541 30,000  Level Jacksonville Center
Thu 09:40:21 PM 30.4353 -82.1119 194° South 465 535 30,000  Level Jacksonville Center
Thu 09:41:21 PM 30.3081 -82.1492 194° South 469 540 30,000  Level Jacksonville Center
Thu 09:42:21 PM 30.1831 -82.1861 194° South 475 547 30,000  Level Jacksonville Center
Thu 09:43:21 PM 30.0561 -82.2231 189° South 469 540 30,000 -550 Level Jacksonville Center
Thu 09:44:21 PM 29.9372 -82.2456 180° South 479 551 28,900 -1,250 Descending Jacksonville Center
Thu 09:45:21 PM 29.8078 -82.2464 179° South 473 544 27,500 -1,350 Descending Jacksonville Center
Thu 09:46:21 PM 29.6636 -82.2447 181° South 473 544 26,200 -800 Descending Jacksonville Center
Thu 09:47:21 PM 29.5364 -82.2481 180° South 473 544 25,900 -150 Descending Jacksonville Center
Thu 09:48:21 PM 29.4069 -82.2489 181° South 468 539 25,900 -900 Level Jacksonville Center
Thu 09:49:21 PM 29.2775 -82.2522 180° South 468 539 24,100 -2,000 Descending Jacksonville Center
Thu 09:50:21 PM 29.1564 -82.2531 180° South 461 531 21,900 -2,300 Descending Jacksonville Center
Thu 09:51:21 PM 29.0375 -82.2536 180° South 443 510 19,500 -2,300 Descending Jacksonville Center
Thu 09:52:21 PM 28.9247 -82.2544 180° South 421 484 17,300 -2,300 Descending Jacksonville Center
Thu 09:53:21 PM 28.8161 -82.2553 179° South 407 468 14,900 -1,389 Descending Jacksonville Center
Thu 09:55:31 PM 28.6000 -82.2500 180° South 372 428 12,900 -947 Descending Tampa TRACON
Thu 09:56:31 PM 28.5000 -82.2500 180° South 339 390 11,900 -947 Descending Tampa TRACON
Thu 09:57:25 PM 28.4167 -82.2500 192° South 297 342 11,100 -1,100 Descending Tampa TRACON
Thu 09:58:31 PM 28.3500 -82.2667 213° Southwest 279 321 9,700 -1,000 Descending Tampa TRACON
Thu 09:59:25 PM 28.2833 -82.3167 230° Southwest 279 321 9,100 -330 Descending Tampa TRACON
Thu 10:00:20 PM 28.2333 -82.3833 204° Southwest 282 325 9,100 -52 Level Tampa TRACON
Thu 10:01:20 PM 28.1667 -82.4167 180° South 266 306 9,000 -850 Descending Tampa TRACON
Thu 10:02:20 PM 28.1000 -82.4167 180° South 261 300 7,400 -1,600 Descending Tampa TRACON
Thu 10:03:20 PM 28.0167 -82.4167 204° Southwest 265 305 5,800 -1,200 Descending Tampa TRACON
Thu 10:04:20 PM 27.9500 -82.4500 204° Southwest 249 287 5,000 -800 Descending Tampa TRACON

Login

Don't have an account? Register now (free) for customized features, flight alerts, and more!